createdAt,value
2024-05-09T00:00:06.801Z,9.26
2024-05-09T00:02:43.511Z,9.11
2024-05-09T00:05:13.831Z,8.96
2024-05-09T00:07:43.690Z,8.99
2024-05-09T00:10:22.299Z,9.02
2024-05-09T00:12:58.656Z,8.90
2024-05-09T00:15:28.400Z,8.91
2024-05-09T00:18:01.142Z,8.92
2024-05-09T00:23:03.523Z,8.96
2024-05-09T00:25:33.208Z,9.08
2024-05-09T00:28:02.834Z,9.05
2024-05-09T00:30:35.766Z,8.93
2024-05-09T00:33:10.807Z,9.13
2024-05-09T00:35:41.628Z,9.29
2024-05-09T00:38:13.486Z,9.40
2024-05-09T00:40:43.856Z,9.54
2024-05-09T00:43:14.826Z,9.54
2024-05-09T00:45:45.418Z,9.69
2024-05-09T00:48:21.391Z,9.63
2024-05-09T00:50:54.239Z,9.47
2024-05-09T00:53:24.566Z,9.42
2024-05-09T00:55:55.767Z,9.49
2024-05-09T00:58:27.029Z,9.51
2024-05-09T01:00:58.839Z,9.50
2024-05-09T01:03:31.344Z,9.58
2024-05-09T01:06:01.352Z,9.70
2024-05-09T01:08:31.312Z,9.86
2024-05-09T01:11:01.509Z,9.93
2024-05-09T01:13:31.429Z,9.78
2024-05-09T01:16:01.275Z,9.86
2024-05-09T01:18:33.610Z,9.88
2024-05-09T01:21:04.548Z,10.01
2024-05-09T01:23:37.141Z,10.07
2024-05-09T01:26:07.130Z,10.15
2024-05-09T01:28:37.011Z,10.28
2024-05-09T01:31:07.053Z,10.44
2024-05-09T01:33:36.995Z,10.44
2024-05-09T01:36:07.299Z,10.56
2024-05-09T01:38:39.526Z,10.51
2024-05-09T01:41:09.213Z,10.68
2024-05-09T01:43:38.833Z,10.66
2024-05-09T01:46:08.467Z,10.69
2024-05-09T01:48:38.126Z,10.73
2024-05-09T01:51:08.456Z,10.67
2024-05-09T01:53:41.342Z,10.57
2024-05-09T01:56:12.103Z,10.66
2024-05-09T01:58:42.027Z,10.73
2024-05-09T02:01:11.678Z,10.73
2024-05-09T02:03:41.795Z,10.74
2024-05-09T02:06:11.705Z,10.71
2024-05-09T02:08:44.011Z,10.69
2024-05-09T02:11:13.792Z,10.57
2024-05-09T02:13:44.177Z,10.61
2024-05-09T02:16:15.045Z,10.59
2024-05-09T02:18:44.916Z,10.70
2024-05-09T02:21:14.717Z,10.57
2024-05-09T02:23:47.080Z,10.61
2024-05-09T02:26:16.747Z,10.61
2024-05-09T02:28:46.519Z,10.62
2024-05-09T02:31:16.137Z,10.53
2024-05-09T02:33:46.506Z,10.30
2024-05-09T02:36:16.593Z,10.14
2024-05-09T02:38:46.260Z,10.25
2024-05-09T02:41:15.909Z,10.02
2024-05-09T02:43:43.034Z,10.04
2024-05-09T02:46:12.976Z,9.83
2024-05-09T02:48:40.079Z,9.81
2024-05-09T02:51:09.768Z,9.58
2024-05-09T02:53:37.019Z,9.57
2024-05-09T02:56:09.931Z,9.52
2024-05-09T02:58:37.093Z,9.16
2024-05-09T03:01:06.914Z,9.20
2024-05-09T03:03:34.269Z,9.23
2024-05-09T03:06:04.973Z,9.11
2024-05-09T03:08:32.174Z,9.12
2024-05-09T03:11:02.003Z,9.00
2024-05-09T03:13:31.927Z,8.73
2024-05-09T03:16:02.743Z,8.53
2024-05-09T03:18:29.887Z,8.75
2024-05-09T03:20:59.593Z,8.72
2024-05-09T03:23:26.812Z,8.69
2024-05-09T03:25:56.901Z,8.72
2024-05-09T03:28:24.039Z,8.71
2024-05-09T03:30:56.262Z,8.62
2024-05-09T03:33:23.685Z,8.54
2024-05-09T03:35:53.553Z,8.47
2024-05-09T03:38:23.226Z,8.47
2024-05-09T03:40:53.337Z,8.43
2024-05-09T03:43:23.265Z,8.38
2024-05-09T03:45:55.938Z,8.40
2024-05-09T03:48:23.064Z,8.40
2024-05-09T03:50:53.413Z,8.35
2024-05-09T03:53:20.546Z,8.32
2024-05-09T03:55:50.206Z,8.29
2024-05-09T03:58:17.202Z,8.34
2024-05-09T04:00:47.235Z,8.31
2024-05-09T04:03:17.176Z,8.09
2024-05-09T04:05:47.036Z,7.87
2024-05-09T04:08:15.152Z,7.87
2024-05-09T04:10:45.187Z,7.92
2024-05-09T04:13:12.229Z,7.87
2024-05-09T04:15:42.116Z,7.96
2024-05-09T04:18:09.372Z,8.05
2024-05-09T04:20:41.849Z,8.12
2024-05-09T04:23:12.359Z,8.33
2024-05-09T04:25:45.506Z,8.45
2024-05-09T04:28:13.053Z,8.58
2024-05-09T04:30:43.197Z,8.66
2024-05-09T04:33:13.047Z,8.79
2024-05-09T04:35:46.661Z,8.64
2024-05-09T04:38:14.895Z,8.67
2024-05-09T04:40:45.151Z,8.72
2024-05-09T04:43:15.715Z,8.87
2024-05-09T04:45:45.573Z,9.01
2024-05-09T04:48:12.931Z,9.13
2024-05-09T04:50:43.132Z,9.09
2024-05-09T04:53:16.377Z,9.32
2024-05-09T04:55:46.636Z,9.39
2024-05-09T04:58:13.785Z,9.50
2024-05-09T05:00:43.806Z,9.54
2024-05-09T05:03:14.067Z,9.64
2024-05-09T05:05:46.164Z,9.68
2024-05-09T05:08:18.218Z,9.88
2024-05-09T05:10:50.334Z,10.01
2024-05-09T05:13:20.422Z,10.10
2024-05-09T05:15:53.415Z,10.22
2024-05-09T05:18:21.490Z,10.18
2024-05-09T05:20:51.766Z,10.42
2024-05-09T05:23:22.582Z,10.56
2024-05-09T05:25:54.260Z,10.63
2024-05-09T05:28:22.126Z,10.75
2024-05-09T05:30:52.344Z,10.87
2024-05-09T05:33:20.009Z,11.00
2024-05-09T05:35:50.211Z,11.19
2024-05-09T05:38:17.220Z,11.36
2024-05-09T05:40:49.720Z,11.56
2024-05-09T05:43:18.160Z,11.43
2024-05-09T05:45:48.396Z,11.61
2024-05-09T05:48:17.837Z,11.70
2024-05-09T05:50:48.482Z,11.82
2024-05-09T05:53:15.784Z,11.88
2024-05-09T05:55:45.852Z,11.97
2024-05-09T05:58:15.540Z,12.08
2024-05-09T06:00:45.490Z,12.00
2024-05-09T06:03:13.458Z,12.09
2024-05-09T06:05:46.021Z,12.25
2024-05-09T06:08:13.325Z,12.41
2024-05-09T06:10:43.127Z,12.40
2024-05-09T06:13:11.425Z,12.62
2024-05-09T06:15:44.634Z,12.74
2024-05-09T06:18:12.642Z,12.92
2024-05-09T06:20:44.035Z,12.94
2024-05-09T06:23:12.769Z,13.00
2024-05-09T06:25:44.130Z,13.25
2024-05-09T06:28:11.452Z,13.30
2024-05-09T06:30:42.731Z,13.37
2024-05-09T06:33:15.228Z,13.21
2024-05-09T06:35:46.306Z,13.23
2024-05-09T06:38:13.663Z,13.34
2024-05-09T06:40:44.558Z,13.37
2024-05-09T06:43:13.009Z,13.38
2024-05-09T06:45:42.664Z,13.35
2024-05-09T06:48:12.710Z,13.33
2024-05-09T06:50:42.552Z,13.24
2024-05-09T06:53:09.846Z,13.58
2024-05-09T06:55:39.988Z,13.61
2024-05-09T06:58:07.780Z,13.69
2024-05-09T07:00:40.196Z,13.76
2024-05-09T07:03:09.182Z,13.78
2024-05-09T07:05:42.233Z,13.97
2024-05-09T07:08:09.512Z,13.98
2024-05-09T07:10:39.413Z,14.24
2024-05-09T07:13:08.714Z,14.28
2024-05-09T07:15:38.358Z,14.38
2024-05-09T07:18:10.879Z,14.42
2024-05-09T07:20:45.155Z,14.64
2024-05-09T07:23:12.799Z,14.56
2024-05-09T07:25:43.629Z,14.82
2024-05-09T07:28:11.606Z,14.95
2024-05-09T07:30:41.205Z,15.27
2024-05-09T07:33:08.402Z,15.31
2024-05-09T07:35:38.415Z,15.48
2024-05-09T07:38:08.165Z,15.65
2024-05-09T07:40:38.768Z,15.54
2024-05-09T07:43:07.924Z,15.89
2024-05-09T07:45:48.444Z,16.03
2024-05-09T07:52:38.164Z,16.36
2024-05-09T07:53:48.315Z,16.30
2024-05-09T07:56:23.053Z,16.29
2024-05-09T07:58:52.357Z,16.42
2024-05-09T08:01:22.319Z,16.27
2024-05-09T08:03:49.787Z,16.28
2024-05-09T08:06:19.794Z,16.29
2024-05-09T08:08:49.885Z,16.21
2024-05-09T08:11:19.777Z,16.33
2024-05-09T08:13:47.086Z,16.43
2024-05-09T08:16:17.479Z,16.40
2024-05-09T08:18:44.667Z,16.57
2024-05-09T08:21:14.453Z,16.67
2024-05-09T08:23:41.478Z,16.62
2024-05-09T08:26:13.730Z,16.72
2024-05-09T08:28:40.671Z,16.75
2024-05-09T08:31:11.761Z,16.84
2024-05-09T08:33:44.440Z,16.89
2024-05-09T08:36:14.250Z,16.85
2024-05-09T08:38:41.304Z,16.83
2024-05-09T08:41:16.691Z,16.88
2024-05-09T08:43:44.744Z,17.10
2024-05-09T08:46:15.760Z,17.13
2024-05-09T08:48:45.799Z,17.27
2024-05-09T08:51:16.951Z,17.20
2024-05-09T08:53:44.053Z,17.50
2024-05-09T08:56:19.131Z,17.48
2024-05-09T08:58:47.580Z,17.54
2024-05-09T09:01:19.058Z,17.40
2024-05-09T09:03:46.447Z,17.70
2024-05-09T09:06:18.388Z,17.76
2024-05-09T09:08:45.728Z,17.82
2024-05-09T09:11:18.229Z,17.84
2024-05-09T09:13:45.271Z,17.93
2024-05-09T09:16:16.386Z,17.91
2024-05-09T09:18:45.101Z,17.98
2024-05-09T09:21:14.866Z,18.10
2024-05-09T09:23:42.017Z,18.36
2024-05-09T09:26:11.710Z,18.37
2024-05-09T09:28:41.383Z,18.51
2024-05-09T09:31:11.085Z,18.36
2024-05-09T09:33:42.485Z,18.57
2024-05-09T09:36:14.237Z,18.27
2024-05-09T09:38:41.632Z,18.38
2024-05-09T09:41:12.446Z,18.54
2024-05-09T09:43:42.811Z,18.90
2024-05-09T09:46:13.130Z,19.27
2024-05-09T09:48:41.914Z,19.93
2024-05-09T09:51:12.170Z,20.41
2024-05-09T09:53:40.119Z,20.39
2024-05-09T09:56:12.939Z,20.51
2024-05-09T09:58:43.876Z,20.48
2024-05-09T10:01:13.652Z,20.48
2024-05-09T10:03:41.364Z,20.51
2024-05-09T10:06:13.405Z,20.52
2024-05-09T10:08:41.060Z,20.64
2024-05-09T10:11:11.045Z,20.72
2024-05-09T10:13:44.186Z,21.01
2024-05-09T10:16:14.439Z,21.33
2024-05-09T10:18:41.993Z,21.58
2024-05-09T10:21:18.492Z,21.97
2024-05-09T10:23:57.097Z,22.57
2024-05-09T10:26:33.847Z,23.36
2024-05-09T10:29:11.050Z,24.02
2024-05-09T10:31:43.928Z,25.04
2024-05-09T10:34:17.329Z,25.99
2024-05-09T10:36:47.216Z,26.93
2024-05-09T10:39:14.182Z,27.60
2024-05-09T10:41:44.227Z,28.25
2024-05-09T10:44:15.255Z,28.30
2024-05-09T10:46:44.995Z,28.94
2024-05-09T10:49:14.353Z,28.85
2024-05-09T10:51:44.561Z,29.46
2024-05-09T10:54:11.685Z,30.05
2024-05-09T10:56:42.118Z,30.54
2024-05-09T10:59:11.791Z,30.55
2024-05-09T11:01:41.678Z,31.16
2024-05-09T11:04:11.786Z,31.07
2024-05-09T11:06:39.552Z,30.88
2024-05-09T11:09:09.530Z,31.10
2024-05-09T11:11:36.700Z,31.01
2024-05-09T11:14:14.709Z,31.14
2024-05-09T11:16:44.337Z,31.42
2024-05-09T11:19:15.839Z,31.41
2024-05-09T11:21:43.202Z,31.78
2024-05-09T11:24:13.083Z,31.60
2024-05-09T11:26:40.111Z,31.22
2024-05-09T11:29:10.094Z,31.53
2024-05-09T11:31:48.391Z,31.52
2024-05-09T11:34:18.424Z,32.00
2024-05-09T11:36:45.575Z,32.13
2024-05-09T11:39:15.444Z,31.66
2024-05-09T11:41:42.434Z,32.14
2024-05-09T11:44:13.187Z,32.22
2024-05-09T11:46:40.120Z,32.24
2024-05-09T11:49:12.849Z,32.24
2024-05-09T11:51:39.988Z,32.05
2024-05-09T11:54:09.635Z,31.35
2024-05-09T11:56:36.660Z,32.07
2024-05-09T11:59:06.711Z,31.74
2024-05-09T12:01:33.961Z,31.29
2024-05-09T12:04:04.281Z,31.45
2024-05-09T12:06:34.098Z,30.78
2024-05-09T12:09:03.791Z,30.92
2024-05-09T12:11:30.821Z,31.33
2024-05-09T12:14:00.497Z,31.27
2024-05-09T12:16:27.529Z,32.35
2024-05-09T12:18:57.409Z,33.05
2024-05-09T12:21:24.679Z,32.46
2024-05-09T12:23:56.863Z,32.65
2024-05-09T12:26:24.011Z,32.54
2024-05-09T12:28:53.585Z,32.64
2024-05-09T12:31:20.763Z,31.65
2024-05-09T12:33:50.560Z,32.09
2024-05-09T12:36:17.654Z,31.29
2024-05-09T12:38:47.534Z,31.92
2024-05-09T12:41:17.169Z,31.99
2024-05-09T12:43:46.900Z,32.37
2024-05-09T12:46:13.995Z,32.82
2024-05-09T12:48:43.969Z,32.11
2024-05-09T12:51:10.988Z,31.15
2024-05-09T12:53:40.897Z,31.04
2024-05-09T12:56:09.466Z,30.26
2024-05-09T12:58:42.094Z,29.90
2024-05-09T13:01:09.297Z,28.86
2024-05-09T13:03:39.122Z,28.83
2024-05-09T13:06:06.314Z,28.58
2024-05-09T13:08:36.033Z,27.62
2024-05-09T13:11:03.026Z,26.85
2024-05-09T13:13:33.028Z,26.33
2024-05-09T13:16:02.840Z,25.93
2024-05-09T13:18:33.606Z,25.12
2024-05-09T13:21:00.829Z,25.06
2024-05-09T13:23:30.568Z,24.60
2024-05-09T13:25:57.692Z,24.76
2024-05-09T13:28:27.538Z,24.89
2024-05-09T13:30:54.682Z,25.05
2024-05-09T13:33:27.163Z,24.54
2024-05-09T13:35:54.327Z,24.35
2024-05-09T13:38:24.477Z,24.45
2024-05-09T13:40:51.709Z,24.32
2024-05-09T13:43:23.281Z,23.81
2024-05-09T13:45:50.656Z,23.87
2024-05-09T13:48:22.783Z,23.30
2024-05-09T13:50:52.841Z,23.25
2024-05-09T13:53:22.523Z,23.43
2024-05-09T13:55:49.860Z,23.43
2024-05-09T13:58:19.883Z,23.35
2024-05-09T14:00:48.998Z,23.42
2024-05-09T14:03:20.905Z,23.64
2024-05-09T14:05:52.221Z,23.98
2024-05-09T14:08:22.843Z,23.77
2024-05-09T14:10:50.745Z,23.80
2024-05-09T14:13:20.827Z,23.67
2024-05-09T14:15:48.149Z,23.30
2024-05-09T14:18:18.060Z,23.18
2024-05-09T14:20:45.146Z,22.72
2024-05-09T14:23:17.799Z,22.72
2024-05-09T14:25:46.581Z,22.90
2024-05-09T14:28:18.498Z,23.03
2024-05-09T14:30:45.840Z,22.90
2024-05-09T14:33:17.475Z,22.67
2024-05-09T14:35:44.480Z,22.64
2024-05-09T14:38:15.352Z,22.36
2024-05-09T14:40:45.227Z,22.10
2024-05-09T14:43:15.964Z,22.19
2024-05-09T14:45:43.866Z,22.04
2024-05-09T14:48:14.640Z,21.82
2024-05-09T14:50:42.465Z,21.92
2024-05-09T14:53:13.463Z,21.98
2024-05-09T14:55:42.998Z,21.89
2024-05-09T14:58:16.160Z,21.86
2024-05-09T15:00:49.855Z,22.12
2024-05-09T15:03:22.213Z,22.19
2024-05-09T15:05:50.330Z,22.07
2024-05-09T15:08:21.098Z,22.13
2024-05-09T15:10:50.221Z,22.16
2024-05-09T15:13:23.261Z,22.18
2024-05-09T15:15:50.327Z,22.40
2024-05-09T15:18:20.844Z,22.24
2024-05-09T15:20:48.442Z,22.02
2024-05-09T15:23:18.348Z,22.09
2024-05-09T15:25:45.463Z,21.91
2024-05-09T15:28:15.216Z,21.82
2024-05-09T15:30:46.593Z,21.66
2024-05-09T15:33:17.179Z,21.40
2024-05-09T15:35:46.787Z,21.37
2024-05-09T15:38:18.753Z,21.37
2024-05-09T15:40:46.116Z,21.26
2024-05-09T15:43:16.204Z,21.34
2024-05-09T15:45:46.027Z,21.42
2024-05-09T15:48:15.901Z,21.34
2024-05-09T15:50:43.531Z,21.32
2024-05-09T15:53:14.883Z,21.31
2024-05-09T15:55:42.247Z,21.13
2024-05-09T15:58:12.761Z,20.96
2024-05-09T16:00:42.669Z,21.05
2024-05-09T16:03:17.006Z,21.03
2024-05-09T16:05:44.920Z,20.84
2024-05-09T16:08:15.595Z,21.03
2024-05-09T16:10:46.026Z,20.89
2024-05-09T16:13:17.742Z,20.93
2024-05-09T16:15:45.336Z,20.92
2024-05-09T16:18:18.000Z,20.69
2024-05-09T16:20:47.464Z,20.72
2024-05-09T16:23:19.514Z,20.64
2024-05-09T16:25:48.479Z,20.65
2024-05-09T16:28:19.067Z,20.63
2024-05-09T16:30:46.219Z,20.54
2024-05-09T16:33:19.607Z,20.56
2024-05-09T16:35:47.075Z,20.43
2024-05-09T16:38:16.700Z,20.35
2024-05-09T16:40:43.933Z,20.26
2024-05-09T16:43:14.498Z,20.12
2024-05-09T16:45:44.198Z,20.16
2024-05-09T16:48:14.623Z,20.14
2024-05-09T16:50:44.499Z,19.94
2024-05-09T16:53:14.561Z,19.89
2024-05-09T16:55:41.595Z,19.93
2024-05-09T16:58:12.679Z,19.88
2024-05-09T17:00:42.853Z,19.74
2024-05-09T17:03:16.522Z,19.64
2024-05-09T17:05:47.639Z,19.61
2024-05-09T17:08:19.925Z,19.44
2024-05-09T17:10:49.508Z,19.41
2024-05-09T17:13:20.111Z,19.28
2024-05-09T17:15:51.023Z,19.17
2024-05-09T17:18:18.301Z,19.06
2024-05-09T17:20:51.671Z,18.84
2024-05-09T17:23:18.650Z,18.92
2024-05-09T17:25:48.367Z,18.89
2024-05-09T17:28:15.571Z,18.81
2024-05-09T17:30:45.614Z,18.74
2024-05-09T17:33:13.395Z,18.65
2024-05-09T17:35:46.313Z,18.47
2024-05-09T17:38:16.049Z,18.47
2024-05-09T17:40:46.122Z,18.20
2024-05-09T17:43:13.317Z,18.18
2024-05-09T17:45:43.011Z,18.06
2024-05-09T17:48:11.776Z,17.99
2024-05-09T17:50:42.441Z,17.80
2024-05-09T17:53:10.391Z,17.89
2024-05-09T17:55:43.213Z,17.74
2024-05-09T17:58:12.362Z,17.70
2024-05-09T18:00:42.801Z,17.54
2024-05-09T18:03:12.330Z,17.50
2024-05-09T18:05:44.497Z,17.35
2024-05-09T18:08:12.384Z,17.25
2024-05-09T18:10:45.311Z,17.12
2024-05-09T18:13:13.551Z,17.10
2024-05-09T18:15:45.338Z,16.99
2024-05-09T18:18:13.268Z,16.92
2024-05-09T18:20:45.662Z,16.70
2024-05-09T18:23:16.133Z,16.66
2024-05-09T18:25:54.514Z,16.55
2024-05-09T18:28:22.334Z,16.46
2024-05-09T18:30:52.457Z,16.51
2024-05-09T18:33:20.613Z,16.44
2024-05-09T18:35:50.949Z,16.34
2024-05-09T18:38:18.582Z,16.26
2024-05-09T18:40:51.023Z,16.30
2024-05-09T18:43:19.032Z,16.24
2024-05-09T18:45:51.615Z,16.11
2024-05-09T18:48:18.860Z,15.87
2024-05-09T18:50:49.014Z,15.83
2024-05-09T18:53:16.309Z,15.89
2024-05-09T18:55:46.059Z,15.78
2024-05-09T18:58:17.389Z,15.70
2024-05-09T19:00:50.208Z,15.67
2024-05-09T19:03:19.208Z,15.67
2024-05-09T19:05:49.300Z,15.57
2024-05-09T19:08:16.495Z,15.46
2024-05-09T19:10:47.159Z,15.44
2024-05-09T19:13:16.906Z,15.32
2024-05-09T19:15:46.795Z,15.35
2024-05-09T19:18:14.607Z,15.27
2024-05-09T19:20:45.175Z,15.19
2024-05-09T19:23:12.336Z,15.07
2024-05-09T19:25:42.155Z,15.11
2024-05-09T19:28:09.331Z,15.02
2024-05-09T19:30:42.938Z,15.01
2024-05-09T19:33:12.637Z,14.99
2024-05-09T19:35:43.937Z,14.97
2024-05-09T19:38:11.722Z,14.95
2024-05-09T19:40:41.533Z,14.81
2024-05-09T19:43:08.883Z,14.89
2024-05-09T19:45:41.397Z,14.80
2024-05-09T19:48:08.961Z,14.78
2024-05-09T19:50:43.248Z,14.73
2024-05-09T19:53:12.305Z,14.74
2024-05-09T19:55:43.055Z,14.64
2024-05-09T19:58:12.648Z,14.62
2024-05-09T20:00:45.402Z,14.43
2024-05-09T20:03:14.308Z,14.40
2024-05-09T20:05:45.882Z,14.26
2024-05-09T20:08:13.575Z,14.12
2024-05-09T20:10:43.391Z,13.97
2024-05-09T20:13:10.385Z,13.93
2024-05-09T20:15:40.514Z,13.84
2024-05-09T20:18:10.359Z,13.78
2024-05-09T20:20:42.851Z,13.57
2024-05-09T20:23:12.170Z,13.62
2024-05-09T20:25:42.090Z,13.57
2024-05-09T20:28:09.844Z,13.44
2024-05-09T20:30:39.900Z,13.28
2024-05-09T20:33:10.231Z,13.32
2024-05-09T20:35:40.220Z,13.26
2024-05-09T20:38:07.468Z,13.22
2024-05-09T20:40:39.226Z,13.29
2024-05-09T20:43:08.357Z,13.18
2024-05-09T20:45:38.764Z,13.20
2024-05-09T20:48:10.084Z,13.12
2024-05-09T20:50:42.111Z,13.01
2024-05-09T20:53:11.382Z,12.96
2024-05-09T20:55:41.468Z,12.90
2024-05-09T20:58:08.829Z,12.84
2024-05-09T21:00:42.575Z,12.85
2024-05-09T21:03:16.555Z,12.87
2024-05-09T21:05:47.959Z,12.81
2024-05-09T21:08:15.538Z,12.81
2024-05-09T21:10:45.438Z,12.84
2024-05-09T21:13:12.698Z,12.84
2024-05-09T21:15:42.420Z,12.88
2024-05-09T21:18:09.730Z,12.82
2024-05-09T21:20:42.097Z,12.77
2024-05-09T21:23:09.118Z,12.76
2024-05-09T21:25:38.823Z,12.84
2024-05-09T21:28:06.274Z,12.88
2024-05-09T21:30:41.539Z,12.89
2024-05-09T21:33:12.265Z,12.88
2024-05-09T21:35:46.541Z,12.99
2024-05-09T21:38:14.605Z,13.00
2024-05-09T21:40:45.591Z,13.02
2024-05-09T21:43:12.943Z,13.10
2024-05-09T21:45:42.783Z,13.23
2024-05-09T21:48:12.461Z,13.32
2024-05-09T21:50:42.698Z,13.31
2024-05-09T21:53:14.527Z,13.38
2024-05-09T21:55:44.521Z,13.26
2024-05-09T21:58:12.558Z,13.33
2024-05-09T22:00:45.744Z,13.33
2024-05-09T22:03:14.042Z,13.30
2024-05-09T22:05:45.112Z,13.31
2024-05-09T22:08:15.226Z,13.30
2024-05-09T22:10:45.275Z,13.37
2024-05-09T22:13:16.842Z,13.17
2024-05-09T22:15:43.931Z,13.29
2024-05-09T22:18:14.008Z,13.08
2024-05-09T22:20:45.450Z,13.34
2024-05-09T22:23:18.747Z,13.31
2024-05-09T22:25:45.707Z,13.28
2024-05-09T22:28:18.056Z,13.37
2024-05-09T22:30:47.167Z,13.36
2024-05-09T22:33:18.031Z,13.38
2024-05-09T22:35:45.408Z,13.38
2024-05-09T22:38:15.190Z,13.34
2024-05-09T22:40:48.457Z,13.36
2024-05-09T22:43:23.818Z,13.32
2024-05-09T22:45:52.430Z,13.36
2024-05-09T22:48:23.649Z,12.99
2024-05-09T22:50:51.659Z,12.92
2024-05-09T22:53:21.567Z,12.74
2024-05-09T22:55:51.341Z,12.75
2024-05-09T22:58:21.558Z,12.72
2024-05-09T23:00:48.904Z,12.49
2024-05-09T23:03:21.523Z,12.59
2024-05-09T23:05:48.947Z,12.50
2024-05-09T23:08:18.722Z,12.47
2024-05-09T23:10:45.986Z,12.35
2024-05-09T23:13:18.646Z,12.18
2024-05-09T23:15:45.716Z,12.00
2024-05-09T23:18:15.463Z,11.98
2024-05-09T23:20:42.670Z,11.94
2024-05-09T23:23:14.859Z,11.99
2024-05-09T23:25:42.275Z,11.91
2024-05-09T23:28:12.699Z,11.72
2024-05-09T23:30:42.732Z,11.81
2024-05-09T23:33:14.482Z,11.81
2024-05-09T23:35:43.987Z,11.73
2024-05-09T23:38:14.063Z,11.67
2024-05-09T23:40:42.448Z,11.58
2024-05-09T23:43:13.721Z,11.65
2024-05-09T23:45:43.894Z,11.53
2024-05-09T23:48:13.840Z,11.56
2024-05-09T23:50:41.549Z,11.57
2024-05-09T23:53:11.762Z,11.47
2024-05-09T23:55:39.632Z,11.55
2024-05-09T23:58:10.089Z,11.61
